Ops Hamburg — A8VS9 — position and weather

sailwx.info

Track history (hours):
 
Tides and Currents Weather Stations Pressure Air Temp Water Temp Dewpoint Dewpoint Depression Visibility Wind Speed Wind Dir Waves Ship Positions

Ops Hamburg

Last reported at 2015-Jan-17 03:18 UTC. Time now 2015-Feb-01 04:08 UTC.
Position N 36°45' E 012°35'.
Warning: this ship's position is 15 days out of date.

Length 148 m; draft 8.7 m.

Type: Ship (hazmat cat A). MMSI: 636092040.

Date/timePositionNaut miles runAvg speedWind from/ knotsBaromVisibWave heightAir tempDewpointWater temp
2015-Jan-17 03:18N 36°45' E 012°35'911.6
2015-Jan-17 02:33N 36°40' E 012°44'1311.8
2015-Jan-17 01:29N 36°32' E 012°57'1712.1
2015-Jan-17 00:06N 36°23' E 013°14'712.3
2015-Jan-16 23:33N 36°20' E 013°21'1312.6
2015-Jan-16 22:33N 36°12' E 013°34'1212.0
2015-Jan-16 21:33N 36°05' E 013°46'1312.5
2015-Jan-16 20:33N 35°58' E 013°58'1212.0
2015-Jan-16 19:33N 35°51' E 014°10'1411.5
2015-Jan-16 18:20N 35°45' E 014°26'7 9.4
2015-Jan-16 17:34N 35°48' E 014°34'1 0.1
2015-Jan-16 08:26N 35°49' E 014°33'0 0.0
2015-Jan-16 07:26N 35°49' E 014°33'0 0.0
2015-Jan-16 06:32N 35°49' E 014°33'0 0.0
2015-Jan-16 05:26N 35°49' E 014°33'0 0.0
2015-Jan-16 04:32N 35°49' E 014°33'0 0.0
2015-Jan-16 03:32N 35°49' E 014°33'0 0.0
2015-Jan-16 02:32N 35°49' E 014°33'0 0.0
2015-Jan-16 00:32N 35°49' E 014°33'0 0.0
2015-Jan-15 22:26N 35°49' E 014°33'0 0.0
2015-Jan-15 21:30N 35°49' E 014°33'0 0.0
2015-Jan-15 20:24N 35°49' E 014°33'6 1.2
2015-Jan-15 15:22N 35°45' E 014°27'911.2
2015-Jan-15 14:33N 35°48' E 014°17'1111.1
2015-Jan-15 13:33N 35°54' E 014°05'2311.3
2015-Jan-15 11:29N 36°06' E 013°40'1010.8
2015-Jan-15 10:34N 36°12' E 013°30'1211.6
2015-Jan-15 09:30N 36°18' E 013°17'1111.5
2015-Jan-15 08:34N 36°24' E 013°06'1211.8
2015-Jan-15 07:34N 36°30' E 012°53'19111.9
2015-Jan-14 15:33N 37°36' E 009°09'1212.0
2015-Jan-14 14:33N 37°36' E 008°54'1212.2
2015-Jan-14 13:33N 37°33' E 008°39'1312.7
2015-Jan-14 12:33N 37°32' E 008°23'1212.1
2015-Jan-14 11:32N 37°30' E 008°07'  
2015-Jan-11 13:06N 36°42' E 005°11'0 0.1
2015-Jan-11 12:18N 36°42' E 005°11'0 0.0
2015-Jan-10 12:33N 36°42' E 005°11'0 0.0
2015-Jan-10 05:24N 36°42' E 005°11'  
Track history (hours):
 
Tides and Currents Weather Stations Pressure Air Temp Water Temp Dewpoint Dewpoint Depression Visibility Wind Speed Wind Dir Waves Ship Positions

Ops Hamburg

Last reported at 2015-Jan-17 03:18 UTC. Time now 2015-Feb-01 04:08 UTC.
Position N 36°45' E 012°35'.
Warning: this ship's position is 15 days out of date.

Length 148 m; draft 8.7 m.

Type: Ship (hazmat cat A). MMSI: 636092040.

Date/timePositionNaut miles runAvg speedWind from/ knotsBaromVisibWave heightAir tempDewpointWater temp
2015-Jan-17 03:18N 36°45' E 012°35'911.6
2015-Jan-17 02:33N 36°40' E 012°44'1311.8
2015-Jan-17 01:29N 36°32' E 012°57'1712.1
2015-Jan-17 00:06N 36°23' E 013°14'712.3
2015-Jan-16 23:33N 36°20' E 013°21'1312.6
2015-Jan-16 22:33N 36°12' E 013°34'1212.0
2015-Jan-16 21:33N 36°05' E 013°46'1312.5
2015-Jan-16 20:33N 35°58' E 013°58'1212.0
2015-Jan-16 19:33N 35°51' E 014°10'1411.5
2015-Jan-16 18:20N 35°45' E 014°26'7 9.4
2015-Jan-16 17:34N 35°48' E 014°34'1 0.1
2015-Jan-16 08:26N 35°49' E 014°33'0 0.0
2015-Jan-16 07:26N 35°49' E 014°33'0 0.0
2015-Jan-16 06:32N 35°49' E 014°33'0 0.0
2015-Jan-16 05:26N 35°49' E 014°33'0 0.0
2015-Jan-16 04:32N 35°49' E 014°33'0 0.0
2015-Jan-16 03:32N 35°49' E 014°33'0 0.0
2015-Jan-16 02:32N 35°49' E 014°33'0 0.0
2015-Jan-16 00:32N 35°49' E 014°33'0 0.0
2015-Jan-15 22:26N 35°49' E 014°33'0 0.0
2015-Jan-15 21:30N 35°49' E 014°33'0 0.0
2015-Jan-15 20:24N 35°49' E 014°33'6 1.2
2015-Jan-15 15:22N 35°45' E 014°27'911.2
2015-Jan-15 14:33N 35°48' E 014°17'1111.1
2015-Jan-15 13:33N 35°54' E 014°05'2311.3
2015-Jan-15 11:29N 36°06' E 013°40'1010.8
2015-Jan-15 10:34N 36°12' E 013°30'1211.6
2015-Jan-15 09:30N 36°18' E 013°17'1111.5
2015-Jan-15 08:34N 36°24' E 013°06'1211.8
2015-Jan-15 07:34N 36°30' E 012°53'19111.9
2015-Jan-14 15:33N 37°36' E 009°09'1212.0
2015-Jan-14 14:33N 37°36' E 008°54'1212.2
2015-Jan-14 13:33N 37°33' E 008°39'1312.7
2015-Jan-14 12:33N 37°32' E 008°23'1212.1
2015-Jan-14 11:32N 37°30' E 008°07'  
2015-Jan-11 13:06N 36°42' E 005°11'0 0.1
2015-Jan-11 12:18N 36°42' E 005°11'0 0.0
2015-Jan-10 12:33N 36°42' E 005°11'0 0.0
2015-Jan-10 05:24N 36°42' E 005°11'  

Dump ship's entire track history